sensor_id;sensor_type;location;lat;lon;timestamp;P1;durP1;ratioP1;P2;durP2;ratioP2
79284;SDS011;68734;50.452;11.636;2023-06-19T00:00:08;26.80;;;13.52;;
79284;SDS011;68734;50.452;11.636;2023-06-19T00:02:41;21.52;;;12.10;;
79284;SDS011;68734;50.452;11.636;2023-06-19T00:05:07;25.00;;;13.02;;
79284;SDS011;68734;50.452;11.636;2023-06-19T00:07:35;24.52;;;14.30;;
79284;SDS011;68734;50.452;11.636;2023-06-19T00:10:01;21.90;;;12.30;;
79284;SDS011;68734;50.452;11.636;2023-06-19T00:12:26;21.00;;;11.80;;
79284;SDS011;68734;50.452;11.636;2023-06-19T00:14:52;24.77;;;12.35;;
79284;SDS011;68734;50.452;11.636;2023-06-19T00:17:17;24.25;;;13.43;;
79284;SDS011;68734;50.452;11.636;2023-06-19T00:19:43;26.50;;;13.93;;
79284;SDS011;68734;50.452;11.636;2023-06-19T00:22:09;30.95;;;13.32;;
79284;SDS011;68734;50.452;11.636;2023-06-19T00:24:34;23.55;;;12.93;;
79284;SDS011;68734;50.452;11.636;2023-06-19T00:27:00;29.17;;;14.25;;
79284;SDS011;68734;50.452;11.636;2023-06-19T00:29:27;22.27;;;11.45;;
79284;SDS011;68734;50.452;11.636;2023-06-19T00:31:53;25.33;;;12.45;;
79284;SDS011;68734;50.452;11.636;2023-06-19T00:34:18;23.13;;;12.25;;
79284;SDS011;68734;50.452;11.636;2023-06-19T00:36:43;22.40;;;11.23;;
79284;SDS011;68734;50.452;11.636;2023-06-19T00:39:11;22.40;;;11.93;;
79284;SDS011;68734;50.452;11.636;2023-06-19T00:41:37;25.17;;;12.77;;
79284;SDS011;68734;50.452;11.636;2023-06-19T00:44:04;27.95;;;12.93;;
79284;SDS011;68734;50.452;11.636;2023-06-19T00:46:30;23.65;;;13.32;;
79284;SDS011;68734;50.452;11.636;2023-06-19T00:48:58;22.98;;;12.15;;
79284;SDS011;68734;50.452;11.636;2023-06-19T00:51:24;28.67;;;13.52;;
79284;SDS011;68734;50.452;11.636;2023-06-19T00:53:49;28.85;;;14.15;;
79284;SDS011;68734;50.452;11.636;2023-06-19T00:56:15;26.48;;;12.98;;
79284;SDS011;68734;50.452;11.636;2023-06-19T00:58:43;23.50;;;12.18;;
79284;SDS011;68734;50.452;11.636;2023-06-19T01:01:09;32.78;;;14.10;;
79284;SDS011;68734;50.452;11.636;2023-06-19T01:03:35;23.05;;;13.10;;
79284;SDS011;68734;50.452;11.636;2023-06-19T01:06:01;25.52;;;13.02;;
79284;SDS011;68734;50.452;11.636;2023-06-19T01:11:10;21.33;;;12.82;;
79284;SDS011;68734;50.452;11.636;2023-06-19T01:14:17;25.65;;;13.45;;
79284;SDS011;68734;50.452;11.636;2023-06-19T01:16:39;27.25;;;13.13;;
79284;SDS011;68734;50.452;11.636;2023-06-19T01:19:05;22.77;;;12.77;;
79284;SDS011;68734;50.452;11.636;2023-06-19T01:21:35;26.45;;;13.50;;
79284;SDS011;68734;50.452;11.636;2023-06-19T01:24:02;24.45;;;12.55;;
79284;SDS011;68734;50.452;11.636;2023-06-19T01:26:27;23.33;;;12.15;;
79284;SDS011;68734;50.452;11.636;2023-06-19T01:28:53;25.40;;;13.27;;
79284;SDS011;68734;50.452;11.636;2023-06-19T01:33:47;22.80;;;14.07;;
79284;SDS011;68734;50.452;11.636;2023-06-19T01:36:15;25.20;;;14.65;;
79284;SDS011;68734;50.452;11.636;2023-06-19T01:38:43;28.13;;;14.18;;
79284;SDS011;68734;50.452;11.636;2023-06-19T01:41:10;22.20;;;11.57;;
79284;SDS011;68734;50.452;11.636;2023-06-19T01:43:38;27.75;;;12.45;;
79284;SDS011;68734;50.452;11.636;2023-06-19T01:46:05;21.88;;;12.27;;
79284;SDS011;68734;50.452;11.636;2023-06-19T01:48:30;25.05;;;13.70;;
79284;SDS011;68734;50.452;11.636;2023-06-19T01:50:56;23.00;;;13.02;;
79284;SDS011;68734;50.452;11.636;2023-06-19T01:53:21;24.98;;;12.88;;
79284;SDS011;68734;50.452;11.636;2023-06-19T01:55:47;25.75;;;12.23;;
79284;SDS011;68734;50.452;11.636;2023-06-19T01:58:12;30.50;;;15.43;;
79284;SDS011;68734;50.452;11.636;2023-06-19T02:00:40;23.30;;;13.80;;
79284;SDS011;68734;50.452;11.636;2023-06-19T02:03:05;26.60;;;15.10;;
79284;SDS011;68734;50.452;11.636;2023-06-19T02:05:31;28.17;;;15.93;;
79284;SDS011;68734;50.452;11.636;2023-06-19T02:07:57;31.00;;;16.10;;
79284;SDS011;68734;50.452;11.636;2023-06-19T02:10:22;33.33;;;15.32;;
79284;SDS011;68734;50.452;11.636;2023-06-19T02:12:50;23.08;;;13.68;;
79284;SDS011;68734;50.452;11.636;2023-06-19T02:15:16;27.45;;;14.35;;
79284;SDS011;68734;50.452;11.636;2023-06-19T02:17:41;23.98;;;14.80;;
79284;SDS011;68734;50.452;11.636;2023-06-19T02:20:09;26.85;;;14.20;;
79284;SDS011;68734;50.452;11.636;2023-06-19T02:22:39;22.85;;;13.77;;
79284;SDS011;68734;50.452;11.636;2023-06-19T02:25:05;22.33;;;12.75;;
79284;SDS011;68734;50.452;11.636;2023-06-19T02:27:31;23.25;;;13.95;;
79284;SDS011;68734;50.452;11.636;2023-06-19T02:29:56;26.60;;;14.32;;
79284;SDS011;68734;50.452;11.636;2023-06-19T02:32:22;30.45;;;16.13;;
79284;SDS011;68734;50.452;11.636;2023-06-19T02:34:47;29.83;;;16.08;;
79284;SDS011;68734;50.452;11.636;2023-06-19T02:37:13;32.65;;;16.58;;
79284;SDS011;68734;50.452;11.636;2023-06-19T02:39:38;36.65;;;17.63;;
79284;SDS011;68734;50.452;11.636;2023-06-19T02:42:04;32.35;;;17.65;;
79284;SDS011;68734;50.452;11.636;2023-06-19T02:44:30;31.40;;;16.23;;
79284;SDS011;68734;50.452;11.636;2023-06-19T02:46:55;31.83;;;16.85;;
79284;SDS011;68734;50.452;11.636;2023-06-19T02:49:21;27.80;;;15.88;;
79284;SDS011;68734;50.452;11.636;2023-06-19T02:51:51;33.00;;;17.00;;
79284;SDS011;68734;50.452;11.636;2023-06-19T02:54:16;31.27;;;16.73;;
79284;SDS011;68734;50.452;11.636;2023-06-19T02:56:42;32.47;;;18.58;;
79284;SDS011;68734;50.452;11.636;2023-06-19T02:59:07;33.17;;;18.80;;
79284;SDS011;68734;50.452;11.636;2023-06-19T03:01:32;32.58;;;17.80;;
79284;SDS011;68734;50.452;11.636;2023-06-19T03:03:59;30.52;;;18.55;;
79284;SDS011;68734;50.452;11.636;2023-06-19T03:06:24;29.80;;;17.42;;
79284;SDS011;68734;50.452;11.636;2023-06-19T03:08:51;28.02;;;17.20;;
79284;SDS011;68734;50.452;11.636;2023-06-19T03:11:16;32.58;;;17.88;;
79284;SDS011;68734;50.452;11.636;2023-06-19T03:13:47;32.80;;;18.17;;
79284;SDS011;68734;50.452;11.636;2023-06-19T03:18:40;30.58;;;16.42;;
79284;SDS011;68734;50.452;11.636;2023-06-19T03:21:06;26.88;;;15.98;;
79284;SDS011;68734;50.452;11.636;2023-06-19T03:23:32;30.70;;;18.10;;
79284;SDS011;68734;50.452;11.636;2023-06-19T03:25:57;31.70;;;18.00;;
79284;SDS011;68734;50.452;11.636;2023-06-19T03:28:23;33.35;;;17.48;;
79284;SDS011;68734;50.452;11.636;2023-06-19T03:30:48;30.30;;;17.23;;
79284;SDS011;68734;50.452;11.636;2023-06-19T03:33:14;26.48;;;16.42;;
79284;SDS011;68734;50.452;11.636;2023-06-19T03:35:40;28.77;;;16.60;;
79284;SDS011;68734;50.452;11.636;2023-06-19T03:38:05;27.50;;;15.95;;
79284;SDS011;68734;50.452;11.636;2023-06-19T03:40:33;28.42;;;17.50;;
79284;SDS011;68734;50.452;11.636;2023-06-19T03:42:59;28.85;;;17.33;;
79284;SDS011;68734;50.452;11.636;2023-06-19T03:45:24;28.45;;;17.50;;
79284;SDS011;68734;50.452;11.636;2023-06-19T03:47:49;26.45;;;14.60;;
79284;SDS011;68734;50.452;11.636;2023-06-19T03:50:15;23.67;;;13.48;;
79284;SDS011;68734;50.452;11.636;2023-06-19T03:52:40;22.40;;;13.52;;
79284;SDS011;68734;50.452;11.636;2023-06-19T03:55:06;25.60;;;15.80;;
79284;SDS011;68734;50.452;11.636;2023-06-19T03:57:32;29.52;;;17.08;;
79284;SDS011;68734;50.452;11.636;2023-06-19T03:59:57;30.33;;;17.17;;
79284;SDS011;68734;50.452;11.636;2023-06-19T04:02:23;26.70;;;16.50;;
79284;SDS011;68734;50.452;11.636;2023-06-19T04:04:48;34.47;;;18.45;;
79284;SDS011;68734;50.452;11.636;2023-06-19T04:07:13;28.40;;;16.88;;
79284;SDS011;68734;50.452;11.636;2023-06-19T04:09:39;27.27;;;16.35;;
79284;SDS011;68734;50.452;11.636;2023-06-19T04:12:05;32.25;;;18.05;;
79284;SDS011;68734;50.452;11.636;2023-06-19T04:14:30;29.33;;;17.00;;
79284;SDS011;68734;50.452;11.636;2023-06-19T04:16:56;29.75;;;17.50;;
79284;SDS011;68734;50.452;11.636;2023-06-19T04:19:21;28.38;;;16.25;;
79284;SDS011;68734;50.452;11.636;2023-06-19T04:21:47;27.33;;;15.68;;
79284;SDS011;68734;50.452;11.636;2023-06-19T04:24:12;23.20;;;14.63;;
79284;SDS011;68734;50.452;11.636;2023-06-19T04:26:38;24.58;;;15.70;;
79284;SDS011;68734;50.452;11.636;2023-06-19T04:29:03;25.38;;;16.00;;
79284;SDS011;68734;50.452;11.636;2023-06-19T04:31:30;26.25;;;14.82;;
79284;SDS011;68734;50.452;11.636;2023-06-19T04:33:55;29.40;;;14.90;;
79284;SDS011;68734;50.452;11.636;2023-06-19T04:36:21;26.90;;;16.33;;
79284;SDS011;68734;50.452;11.636;2023-06-19T04:38:47;21.15;;;13.77;;
79284;SDS011;68734;50.452;11.636;2023-06-19T04:41:13;24.13;;;15.60;;
79284;SDS011;68734;50.452;11.636;2023-06-19T04:43:38;28.80;;;17.63;;
79284;SDS011;68734;50.452;11.636;2023-06-19T04:46:06;27.00;;;16.65;;
79284;SDS011;68734;50.452;11.636;2023-06-19T04:48:32;24.63;;;15.00;;
79284;SDS011;68734;50.452;11.636;2023-06-19T04:51:00;23.92;;;16.60;;
79284;SDS011;68734;50.452;11.636;2023-06-19T04:53:28;25.13;;;14.65;;
79284;SDS011;68734;50.452;11.636;2023-06-19T04:55:54;23.27;;;15.32;;
79284;SDS011;68734;50.452;11.636;2023-06-19T04:58:22;25.42;;;14.35;;
79284;SDS011;68734;50.452;11.636;2023-06-19T05:00:47;22.02;;;14.27;;
79284;SDS011;68734;50.452;11.636;2023-06-19T05:03:17;48.20;;;16.23;;
79284;SDS011;68734;50.452;11.636;2023-06-19T05:05:43;26.15;;;16.15;;
79284;SDS011;68734;50.452;11.636;2023-06-19T05:08:09;25.27;;;15.38;;
79284;SDS011;68734;50.452;11.636;2023-06-19T05:10:34;24.55;;;14.10;;
79284;SDS011;68734;50.452;11.636;2023-06-19T05:13:00;25.48;;;16.38;;
79284;SDS011;68734;50.452;11.636;2023-06-19T05:15:26;24.40;;;15.18;;
79284;SDS011;68734;50.452;11.636;2023-06-19T05:17:52;21.33;;;14.15;;
79284;SDS011;68734;50.452;11.636;2023-06-19T05:20:18;21.52;;;13.63;;
79284;SDS011;68734;50.452;11.636;2023-06-19T05:22:43;24.38;;;14.57;;
79284;SDS011;68734;50.452;11.636;2023-06-19T05:25:09;23.17;;;14.15;;
79284;SDS011;68734;50.452;11.636;2023-06-19T05:27:34;23.08;;;12.85;;
79284;SDS011;68734;50.452;11.636;2023-06-19T05:30:00;22.95;;;14.02;;
79284;SDS011;68734;50.452;11.636;2023-06-19T05:32:25;22.05;;;14.00;;
79284;SDS011;68734;50.452;11.636;2023-06-19T05:34:53;17.75;;;12.43;;
79284;SDS011;68734;50.452;11.636;2023-06-19T05:37:19;20.15;;;13.00;;
79284;SDS011;68734;50.452;11.636;2023-06-19T05:39:44;18.27;;;11.48;;
79284;SDS011;68734;50.452;11.636;2023-06-19T05:42:10;15.95;;;11.23;;
79284;SDS011;68734;50.452;11.636;2023-06-19T05:44:37;15.13;;;10.80;;
79284;SDS011;68734;50.452;11.636;2023-06-19T05:47:03;15.00;;;10.95;;
79284;SDS011;68734;50.452;11.636;2023-06-19T05:49:31;16.75;;;11.07;;
79284;SDS011;68734;50.452;11.636;2023-06-19T05:51:56;16.33;;;11.43;;
79284;SDS011;68734;50.452;11.636;2023-06-19T05:54:26;15.30;;;10.32;;
79284;SDS011;68734;50.452;11.636;2023-06-19T05:56:52;15.75;;;10.27;;
79284;SDS011;68734;50.452;11.636;2023-06-19T05:59:17;17.23;;;11.27;;
79284;SDS011;68734;50.452;11.636;2023-06-19T06:01:43;17.90;;;11.50;;
79284;SDS011;68734;50.452;11.636;2023-06-19T06:04:08;21.55;;;13.25;;
79284;SDS011;68734;50.452;11.636;2023-06-19T06:06:34;29.08;;;16.45;;
79284;SDS011;68734;50.452;11.636;2023-06-19T06:09:00;26.27;;;15.52;;
79284;SDS011;68734;50.452;11.636;2023-06-19T06:11:25;24.05;;;14.68;;
79284;SDS011;68734;50.452;11.636;2023-06-19T06:13:51;22.52;;;13.55;;
79284;SDS011;68734;50.452;11.636;2023-06-19T06:16:16;21.65;;;13.27;;
79284;SDS011;68734;50.452;11.636;2023-06-19T06:18:42;15.45;;;9.77;;
79284;SDS011;68734;50.452;11.636;2023-06-19T06:21:09;17.33;;;11.35;;
79284;SDS011;68734;50.452;11.636;2023-06-19T06:23:37;18.08;;;12.27;;
79284;SDS011;68734;50.452;11.636;2023-06-19T06:26:03;15.68;;;11.43;;
79284;SDS011;68734;50.452;11.636;2023-06-19T06:28:29;14.95;;;10.00;;
79284;SDS011;68734;50.452;11.636;2023-06-19T06:30:56;14.07;;;10.10;;
79284;SDS011;68734;50.452;11.636;2023-06-19T06:33:22;14.35;;;10.38;;
79284;SDS011;68734;50.452;11.636;2023-06-19T06:35:48;16.75;;;10.95;;
79284;SDS011;68734;50.452;11.636;2023-06-19T06:38:13;18.10;;;11.65;;
79284;SDS011;68734;50.452;11.636;2023-06-19T06:40:39;16.80;;;10.27;;
79284;SDS011;68734;50.452;11.636;2023-06-19T06:43:06;12.10;;;9.27;;
79284;SDS011;68734;50.452;11.636;2023-06-19T06:45:32;18.38;;;8.00;;
79284;SDS011;68734;50.452;11.636;2023-06-19T06:47:57;11.50;;;7.45;;
79284;SDS011;68734;50.452;11.636;2023-06-19T06:50:22;9.93;;;7.72;;
79284;SDS011;68734;50.452;11.636;2023-06-19T06:52:48;11.73;;;7.50;;
79284;SDS011;68734;50.452;11.636;2023-06-19T06:55:13;14.27;;;7.40;;
79284;SDS011;68734;50.452;11.636;2023-06-19T06:57:39;10.55;;;7.50;;
79284;SDS011;68734;50.452;11.636;2023-06-19T07:00:06;10.05;;;7.63;;
79284;SDS011;68734;50.452;11.636;2023-06-19T07:02:37;15.27;;;7.88;;
79284;SDS011;68734;50.452;11.636;2023-06-19T07:05:06;9.88;;;6.75;;
79284;SDS011;68734;50.452;11.636;2023-06-19T07:07:32;12.85;;;7.53;;
79284;SDS011;68734;50.452;11.636;2023-06-19T07:09:57;15.48;;;8.38;;
79284;SDS011;68734;50.452;11.636;2023-06-19T07:12:25;11.85;;;8.07;;
79284;SDS011;68734;50.452;11.636;2023-06-19T07:14:56;12.05;;;7.72;;
79284;SDS011;68734;50.452;11.636;2023-06-19T07:19:49;10.63;;;8.27;;
79284;SDS011;68734;50.452;11.636;2023-06-19T07:22:15;14.25;;;8.50;;
79284;SDS011;68734;50.452;11.636;2023-06-19T07:24:41;11.68;;;7.95;;
79284;SDS011;68734;50.452;11.636;2023-06-19T07:27:06;12.18;;;8.15;;
79284;SDS011;68734;50.452;11.636;2023-06-19T07:29:31;10.68;;;8.05;;
79284;SDS011;68734;50.452;11.636;2023-06-19T07:31:57;11.07;;;7.70;;
79284;SDS011;68734;50.452;11.636;2023-06-19T07:34:23;12.02;;;7.72;;
79284;SDS011;68734;50.452;11.636;2023-06-19T07:36:53;18.05;;;9.68;;
79284;SDS011;68734;50.452;11.636;2023-06-19T07:39:18;12.15;;;8.80;;
79284;SDS011;68734;50.452;11.636;2023-06-19T07:41:46;12.48;;;9.13;;
79284;SDS011;68734;50.452;11.636;2023-06-19T07:44:11;12.55;;;8.80;;
79284;SDS011;68734;50.452;11.636;2023-06-19T07:46:37;16.85;;;8.77;;
79284;SDS011;68734;50.452;11.636;2023-06-19T07:49:05;12.23;;;8.48;;
79284;SDS011;68734;50.452;11.636;2023-06-19T07:51:30;12.60;;;8.45;;
79284;SDS011;68734;50.452;11.636;2023-06-19T07:53:56;12.50;;;8.85;;
79284;SDS011;68734;50.452;11.636;2023-06-19T07:56:24;13.85;;;8.57;;
79284;SDS011;68734;50.452;11.636;2023-06-19T07:58:49;12.07;;;9.43;;
79284;SDS011;68734;50.452;11.636;2023-06-19T08:01:17;10.00;;;7.85;;
79284;SDS011;68734;50.452;11.636;2023-06-19T08:03:43;13.98;;;9.95;;
79284;SDS011;68734;50.452;11.636;2023-06-19T08:06:08;10.52;;;8.20;;
79284;SDS011;68734;50.452;11.636;2023-06-19T08:08:36;12.45;;;9.07;;
79284;SDS011;68734;50.452;11.636;2023-06-19T08:11:06;12.48;;;9.38;;
79284;SDS011;68734;50.452;11.636;2023-06-19T08:13:31;15.65;;;9.93;;
79284;SDS011;68734;50.452;11.636;2023-06-19T08:15:59;11.40;;;8.80;;
79284;SDS011;68734;50.452;11.636;2023-06-19T08:18:25;12.05;;;9.27;;
79284;SDS011;68734;50.452;11.636;2023-06-19T08:20:50;11.15;;;8.48;;
79284;SDS011;68734;50.452;11.636;2023-06-19T08:23:16;13.25;;;9.73;;
79284;SDS011;68734;50.452;11.636;2023-06-19T08:25:43;12.15;;;8.57;;
79284;SDS011;68734;50.452;11.636;2023-06-19T08:28:09;14.43;;;8.65;;
79284;SDS011;68734;50.452;11.636;2023-06-19T08:30:36;11.32;;;8.65;;
79284;SDS011;68734;50.452;11.636;2023-06-19T08:33:02;10.25;;;8.18;;
79284;SDS011;68734;50.452;11.636;2023-06-19T08:35:27;11.63;;;7.68;;
79284;SDS011;68734;50.452;11.636;2023-06-19T08:37:55;12.23;;;8.60;;
79284;SDS011;68734;50.452;11.636;2023-06-19T08:40:20;12.50;;;8.70;;
79284;SDS011;68734;50.452;11.636;2023-06-19T08:42:48;11.45;;;8.10;;
79284;SDS011;68734;50.452;11.636;2023-06-19T08:45:14;13.70;;;8.77;;
79284;SDS011;68734;50.452;11.636;2023-06-19T08:47:39;14.63;;;8.88;;
79284;SDS011;68734;50.452;11.636;2023-06-19T08:50:05;12.93;;;8.70;;
79284;SDS011;68734;50.452;11.636;2023-06-19T08:52:31;13.52;;;9.05;;
79284;SDS011;68734;50.452;11.636;2023-06-19T08:54:56;14.20;;;10.00;;
79284;SDS011;68734;50.452;11.636;2023-06-19T08:57:21;12.57;;;8.82;;
79284;SDS011;68734;50.452;11.636;2023-06-19T09:00:00;14.98;;;9.32;;
79284;SDS011;68734;50.452;11.636;2023-06-19T09:02:35;11.35;;;8.43;;
79284;SDS011;68734;50.452;11.636;2023-06-19T09:05:11;10.98;;;8.27;;
79284;SDS011;68734;50.452;11.636;2023-06-19T09:07:38;12.60;;;8.80;;
79284;SDS011;68734;50.452;11.636;2023-06-19T09:10:16;12.23;;;9.57;;
79284;SDS011;68734;50.452;11.636;2023-06-19T09:12:43;12.38;;;8.95;;
79284;SDS011;68734;50.452;11.636;2023-06-19T09:15:13;14.45;;;9.25;;
79284;SDS011;68734;50.452;11.636;2023-06-19T09:17:39;14.15;;;9.45;;
79284;SDS011;68734;50.452;11.636;2023-06-19T09:20:05;12.88;;;8.88;;
79284;SDS011;68734;50.452;11.636;2023-06-19T09:22:32;14.77;;;10.13;;
79284;SDS011;68734;50.452;11.636;2023-06-19T09:25:01;13.90;;;9.07;;
79284;SDS011;68734;50.452;11.636;2023-06-19T09:27:37;13.55;;;9.43;;
79284;SDS011;68734;50.452;11.636;2023-06-19T09:30:04;11.63;;;9.45;;
79284;SDS011;68734;50.452;11.636;2023-06-19T09:32:30;15.45;;;9.15;;
79284;SDS011;68734;50.452;11.636;2023-06-19T09:34:56;11.82;;;9.30;;
79284;SDS011;68734;50.452;11.636;2023-06-19T09:37:26;13.45;;;9.88;;
79284;SDS011;68734;50.452;11.636;2023-06-19T09:42:30;11.65;;;9.40;;
79284;SDS011;68734;50.452;11.636;2023-06-19T09:44:59;13.63;;;9.48;;
79284;SDS011;68734;50.452;11.636;2023-06-19T09:47:38;14.27;;;9.57;;
79284;SDS011;68734;50.452;11.636;2023-06-19T09:50:11;14.52;;;8.90;;
79284;SDS011;68734;50.452;11.636;2023-06-19T09:52:40;14.15;;;9.32;;
79284;SDS011;68734;50.452;11.636;2023-06-19T09:55:07;10.68;;;9.07;;
79284;SDS011;68734;50.452;11.636;2023-06-19T09:57:35;11.57;;;8.68;;
79284;SDS011;68734;50.452;11.636;2023-06-19T10:00:04;14.98;;;9.30;;
79284;SDS011;68734;50.452;11.636;2023-06-19T10:02:37;11.30;;;8.70;;
79284;SDS011;68734;50.452;11.636;2023-06-19T10:05:03;13.90;;;8.95;;
79284;SDS011;68734;50.452;11.636;2023-06-19T10:07:33;22.92;;;10.85;;
79284;SDS011;68734;50.452;11.636;2023-06-19T10:10:06;21.80;;;10.27;;
79284;SDS011;68734;50.452;11.636;2023-06-19T10:12:43;11.55;;;8.25;;
79284;SDS011;68734;50.452;11.636;2023-06-19T10:17:41;11.88;;;8.90;;
79284;SDS011;68734;50.452;11.636;2023-06-19T10:20:17;15.65;;;8.88;;
79284;SDS011;68734;50.452;11.636;2023-06-19T10:23:20;12.93;;;9.13;;
79284;SDS011;68734;50.452;11.636;2023-06-19T10:25:43;14.30;;;9.18;;
79284;SDS011;68734;50.452;11.636;2023-06-19T10:28:16;13.35;;;9.43;;
79284;SDS011;68734;50.452;11.636;2023-06-19T10:30:44;13.63;;;9.82;;
79284;SDS011;68734;50.452;11.636;2023-06-19T10:33:09;15.30;;;9.57;;
79284;SDS011;68734;50.452;11.636;2023-06-19T10:35:38;11.93;;;9.23;;
79284;SDS011;68734;50.452;11.636;2023-06-19T10:38:07;9.57;;;7.70;;
79284;SDS011;68734;50.452;11.636;2023-06-19T10:40:35;12.95;;;9.00;;
79284;SDS011;68734;50.452;11.636;2023-06-19T10:43:02;11.38;;;8.55;;
79284;SDS011;68734;50.452;11.636;2023-06-19T10:45:29;22.75;;;9.27;;
79284;SDS011;68734;50.452;11.636;2023-06-19T10:47:54;12.32;;;9.25;;
79284;SDS011;68734;50.452;11.636;2023-06-19T10:50:21;11.02;;;8.88;;
79284;SDS011;68734;50.452;11.636;2023-06-19T10:52:48;11.82;;;8.98;;
79284;SDS011;68734;50.452;11.636;2023-06-19T10:55:17;10.43;;;8.23;;
79284;SDS011;68734;50.452;11.636;2023-06-19T10:57:46;11.13;;;9.02;;
79284;SDS011;68734;50.452;11.636;2023-06-19T11:00:21;10.80;;;7.82;;
79284;SDS011;68734;50.452;11.636;2023-06-19T11:02:55;12.80;;;9.00;;
79284;SDS011;68734;50.452;11.636;2023-06-19T11:05:21;11.52;;;8.82;;
79284;SDS011;68734;50.452;11.636;2023-06-19T11:07:51;10.50;;;8.35;;
79284;SDS011;68734;50.452;11.636;2023-06-19T11:10:21;13.13;;;8.60;;
79284;SDS011;68734;50.452;11.636;2023-06-19T11:12:49;11.57;;;8.48;;
79284;SDS011;68734;50.452;11.636;2023-06-19T11:15:18;12.40;;;8.10;;
79284;SDS011;68734;50.452;11.636;2023-06-19T11:17:43;10.73;;;8.13;;
79284;SDS011;68734;50.452;11.636;2023-06-19T11:20:12;13.38;;;8.85;;
79284;SDS011;68734;50.452;11.636;2023-06-19T11:22:40;14.23;;;8.75;;
79284;SDS011;68734;50.452;11.636;2023-06-19T11:25:07;10.18;;;7.80;;
79284;SDS011;68734;50.452;11.636;2023-06-19T11:27:36;12.32;;;7.20;;
79284;SDS011;68734;50.452;11.636;2023-06-19T11:30:03;11.55;;;8.38;;
79284;SDS011;68734;50.452;11.636;2023-06-19T11:32:32;9.43;;;7.65;;
79284;SDS011;68734;50.452;11.636;2023-06-19T11:35:04;10.57;;;7.88;;
79284;SDS011;68734;50.452;11.636;2023-06-19T11:37:32;10.52;;;8.25;;
79284;SDS011;68734;50.452;11.636;2023-06-19T11:39:58;10.18;;;8.18;;
79284;SDS011;68734;50.452;11.636;2023-06-19T11:42:24;9.00;;;7.60;;
79284;SDS011;68734;50.452;11.636;2023-06-19T11:44:59;10.43;;;7.82;;
79284;SDS011;68734;50.452;11.636;2023-06-19T11:47:29;11.98;;;8.10;;
79284;SDS011;68734;50.452;11.636;2023-06-19T11:49:56;12.82;;;8.02;;
79284;SDS011;68734;50.452;11.636;2023-06-19T11:52:22;10.77;;;7.80;;
79284;SDS011;68734;50.452;11.636;2023-06-19T11:54:48;11.10;;;7.30;;
79284;SDS011;68734;50.452;11.636;2023-06-19T11:57:13;10.65;;;7.10;;
79284;SDS011;68734;50.452;11.636;2023-06-19T11:59:43;9.85;;;6.75;;
79284;SDS011;68734;50.452;11.636;2023-06-19T12:02:09;12.30;;;7.82;;
79284;SDS011;68734;50.452;11.636;2023-06-19T12:04:37;10.05;;;6.78;;
79284;SDS011;68734;50.452;11.636;2023-06-19T12:07:02;9.52;;;7.40;;
79284;SDS011;68734;50.452;11.636;2023-06-19T12:09:31;7.90;;;6.60;;
79284;SDS011;68734;50.452;11.636;2023-06-19T12:11:57;11.13;;;6.68;;
79284;SDS011;68734;50.452;11.636;2023-06-19T12:14:26;9.43;;;7.15;;
79284;SDS011;68734;50.452;11.636;2023-06-19T12:16:51;7.90;;;6.43;;
79284;SDS011;68734;50.452;11.636;2023-06-19T12:19:17;7.82;;;6.50;;
79284;SDS011;68734;50.452;11.636;2023-06-19T12:21:43;8.98;;;6.53;;
79284;SDS011;68734;50.452;11.636;2023-06-19T12:24:08;8.07;;;6.47;;
79284;SDS011;68734;50.452;11.636;2023-06-19T12:26:34;10.43;;;6.55;;
79284;SDS011;68734;50.452;11.636;2023-06-19T12:29:03;7.97;;;6.40;;
79284;SDS011;68734;50.452;11.636;2023-06-19T12:31:29;6.85;;;5.53;;
79284;SDS011;68734;50.452;11.636;2023-06-19T12:33:56;6.82;;;5.45;;
79284;SDS011;68734;50.452;11.636;2023-06-19T12:36:21;8.40;;;6.82;;
79284;SDS011;68734;50.452;11.636;2023-06-19T12:38:47;9.13;;;6.82;;
79284;SDS011;68734;50.452;11.636;2023-06-19T12:41:14;7.28;;;6.10;;
79284;SDS011;68734;50.452;11.636;2023-06-19T12:43:40;9.38;;;6.75;;
79284;SDS011;68734;50.452;11.636;2023-06-19T12:46:05;9.35;;;6.38;;
79284;SDS011;68734;50.452;11.636;2023-06-19T12:48:31;8.43;;;6.50;;
79284;SDS011;68734;50.452;11.636;2023-06-19T12:50:57;7.95;;;6.07;;
79284;SDS011;68734;50.452;11.636;2023-06-19T12:53:23;10.88;;;6.93;;
79284;SDS011;68734;50.452;11.636;2023-06-19T12:55:52;10.70;;;7.55;;
79284;SDS011;68734;50.452;11.636;2023-06-19T12:58:21;7.28;;;6.25;;
79284;SDS011;68734;50.452;11.636;2023-06-19T13:00:47;8.65;;;6.38;;
79284;SDS011;68734;50.452;11.636;2023-06-19T13:03:12;8.68;;;5.65;;
79284;SDS011;68734;50.452;11.636;2023-06-19T13:05:38;8.57;;;6.15;;
79284;SDS011;68734;50.452;11.636;2023-06-19T13:08:03;7.95;;;6.05;;
79284;SDS011;68734;50.452;11.636;2023-06-19T13:10:29;9.18;;;6.15;;
79284;SDS011;68734;50.452;11.636;2023-06-19T13:12:54;8.18;;;6.28;;
79284;SDS011;68734;50.452;11.636;2023-06-19T13:15:20;7.43;;;6.05;;
79284;SDS011;68734;50.452;11.636;2023-06-19T13:17:45;8.10;;;6.22;;
79284;SDS011;68734;50.452;11.636;2023-06-19T13:20:13;6.18;;;5.22;;
79284;SDS011;68734;50.452;11.636;2023-06-19T13:22:40;6.85;;;5.32;;
79284;SDS011;68734;50.452;11.636;2023-06-19T13:25:06;7.70;;;6.18;;
79284;SDS011;68734;50.452;11.636;2023-06-19T13:27:34;6.60;;;5.05;;
79284;SDS011;68734;50.452;11.636;2023-06-19T13:30:00;8.55;;;6.22;;
79284;SDS011;68734;50.452;11.636;2023-06-19T13:32:26;8.30;;;5.93;;
79284;SDS011;68734;50.452;11.636;2023-06-19T13:34:52;7.38;;;5.20;;
79284;SDS011;68734;50.452;11.636;2023-06-19T13:37:18;7.85;;;6.03;;
79284;SDS011;68734;50.452;11.636;2023-06-19T13:39:44;7.40;;;5.93;;
79284;SDS011;68734;50.452;11.636;2023-06-19T13:42:10;7.40;;;5.90;;
79284;SDS011;68734;50.452;11.636;2023-06-19T13:44:36;7.90;;;5.38;;
79284;SDS011;68734;50.452;11.636;2023-06-19T13:47:01;6.88;;;5.35;;
79284;SDS011;68734;50.452;11.636;2023-06-19T13:49:27;7.13;;;5.10;;
79284;SDS011;68734;50.452;11.636;2023-06-19T13:51:53;7.13;;;6.00;;
79284;SDS011;68734;50.452;11.636;2023-06-19T13:54:19;6.82;;;6.05;;
79284;SDS011;68734;50.452;11.636;2023-06-19T13:56:45;11.07;;;6.47;;
79284;SDS011;68734;50.452;11.636;2023-06-19T13:59:12;5.97;;;5.38;;
79284;SDS011;68734;50.452;11.636;2023-06-19T14:01:38;8.00;;;6.97;;
79284;SDS011;68734;50.452;11.636;2023-06-19T14:04:04;8.77;;;7.05;;
79284;SDS011;68734;50.452;11.636;2023-06-19T14:06:29;8.63;;;6.85;;
79284;SDS011;68734;50.452;11.636;2023-06-19T14:08:55;12.05;;;6.55;;
79284;SDS011;68734;50.452;11.636;2023-06-19T14:11:20;10.05;;;6.28;;
79284;SDS011;68734;50.452;11.636;2023-06-19T14:13:46;9.27;;;6.97;;
79284;SDS011;68734;50.452;11.636;2023-06-19T14:16:11;7.95;;;6.20;;
79284;SDS011;68734;50.452;11.636;2023-06-19T14:18:37;6.90;;;5.90;;
79284;SDS011;68734;50.452;11.636;2023-06-19T14:21:05;9.52;;;6.47;;
79284;SDS011;68734;50.452;11.636;2023-06-19T14:23:30;7.95;;;6.35;;
79284;SDS011;68734;50.452;11.636;2023-06-19T14:25:56;11.15;;;6.82;;
79284;SDS011;68734;50.452;11.636;2023-06-19T14:28:21;7.95;;;6.20;;
79284;SDS011;68734;50.452;11.636;2023-06-19T14:30:47;7.18;;;5.97;;